sensor_id;sensor_type;location;lat;lon;timestamp;temperature;humidity
63277;DHT22;49403;51.046;13.780;2023-12-28T00:00:13;7.40;88.60
63277;DHT22;49403;51.046;13.780;2023-12-28T00:00:43;8.10;89.10
63277;DHT22;49403;51.046;13.780;2023-12-28T00:01:14;8.10;89.00
63277;DHT22;49403;51.046;13.780;2023-12-28T00:01:45;8.10;89.10
63277;DHT22;49403;51.046;13.780;2023-12-28T00:02:16;8.10;89.00
63277;DHT22;49403;51.046;13.780;2023-12-28T00:02:47;8.10;89.10
63277;DHT22;49403;51.046;13.780;2023-12-28T00:03:17;8.00;88.90
63277;DHT22;49403;51.046;13.780;2023-12-28T00:03:49;8.10;89.10
63277;DHT22;49403;51.046;13.780;2023-12-28T00:04:19;8.10;88.90
63277;DHT22;49403;51.046;13.780;2023-12-28T00:04:50;8.10;89.20
63277;DHT22;49403;51.046;13.780;2023-12-28T00:05:21;7.90;89.00
63277;DHT22;49403;51.046;13.780;2023-12-28T00:05:52;8.00;89.00
63277;DHT22;49403;51.046;13.780;2023-12-28T00:06:23;7.90;89.10
63277;DHT22;49403;51.046;13.780;2023-12-28T00:06:53;8.00;88.90
63277;DHT22;49403;51.046;13.780;2023-12-28T00:07:24;8.00;89.00
63277;DHT22;49403;51.046;13.780;2023-12-28T00:07:55;8.10;89.10
63277;DHT22;49403;51.046;13.780;2023-12-28T00:08:28;6.80;87.60
63277;DHT22;49403;51.046;13.780;2023-12-28T00:08:59;8.10;88.70
63277;DHT22;49403;51.046;13.780;2023-12-28T00:09:31;6.50;87.00
63277;DHT22;49403;51.046;13.780;2023-12-28T00:10:03;8.10;88.50
63277;DHT22;49403;51.046;13.780;2023-12-28T00:10:33;8.10;88.00
63277;DHT22;49403;51.046;13.780;2023-12-28T00:11:04;8.10;88.20
63277;DHT22;49403;51.046;13.780;2023-12-28T00:11:35;8.10;88.20
63277;DHT22;49403;51.046;13.780;2023-12-28T00:12:06;7.10;87.20
63277;DHT22;49403;51.046;13.780;2023-12-28T00:12:37;8.10;88.30
63277;DHT22;49403;51.046;13.780;2023-12-28T00:13:07;7.00;86.90
63277;DHT22;49403;51.046;13.780;2023-12-28T00:13:38;8.10;88.00
63277;DHT22;49403;51.046;13.780;2023-12-28T00:14:09;8.10;87.80
63277;DHT22;49403;51.046;13.780;2023-12-28T00:14:40;8.10;87.80
63277;DHT22;49403;51.046;13.780;2023-12-28T00:15:10;8.10;87.80
63277;DHT22;49403;51.046;13.780;2023-12-28T00:15:41;8.20;87.90
63277;DHT22;49403;51.046;13.780;2023-12-28T00:16:12;8.10;87.80
63277;DHT22;49403;51.046;13.780;2023-12-28T00:16:43;8.10;87.60
63277;DHT22;49403;51.046;13.780;2023-12-28T00:17:14;7.80;87.50
63277;DHT22;49403;51.046;13.780;2023-12-28T00:17:44;8.20;87.80
63277;DHT22;49403;51.046;13.780;2023-12-28T00:18:15;8.20;87.60
63277;DHT22;49403;51.046;13.780;2023-12-28T00:18:46;8.20;87.70
63277;DHT22;49403;51.046;13.780;2023-12-28T00:19:17;8.20;87.60
63277;DHT22;49403;51.046;13.780;2023-12-28T00:19:47;8.20;87.50
63277;DHT22;49403;51.046;13.780;2023-12-28T00:20:18;8.20;87.50
63277;DHT22;49403;51.046;13.780;2023-12-28T00:20:49;8.20;87.50
63277;DHT22;49403;51.046;13.780;2023-12-28T00:21:20;8.20;87.50
63277;DHT22;49403;51.046;13.780;2023-12-28T00:21:51;8.20;87.30
63277;DHT22;49403;51.046;13.780;2023-12-28T00:22:22;8.20;87.30
63277;DHT22;49403;51.046;13.780;2023-12-28T00:22:52;8.40;87.50
63277;DHT22;49403;51.046;13.780;2023-12-28T00:23:23;8.30;87.30
63277;DHT22;49403;51.046;13.780;2023-12-28T00:23:54;8.20;87.10
63277;DHT22;49403;51.046;13.780;2023-12-28T00:24:25;8.20;87.10
63277;DHT22;49403;51.046;13.780;2023-12-28T00:24:55;8.20;87.00
63277;DHT22;49403;51.046;13.780;2023-12-28T00:25:26;7.00;86.00
63277;DHT22;49403;51.046;13.780;2023-12-28T00:25:57;8.30;87.10
63277;DHT22;49403;51.046;13.780;2023-12-28T00:26:28;8.20;86.80
63277;DHT22;49403;51.046;13.780;2023-12-28T00:26:59;8.20;86.80
63277;DHT22;49403;51.046;13.780;2023-12-28T00:27:30;8.20;86.70
63277;DHT22;49403;51.046;13.780;2023-12-28T00:28:00;9.60;87.90
63277;DHT22;49403;51.046;13.780;2023-12-28T00:28:31;8.60;87.40
63277;DHT22;49403;51.046;13.780;2023-12-28T00:29:02;8.20;86.60
63277;DHT22;49403;51.046;13.780;2023-12-28T00:29:32;8.20;87.30
63277;DHT22;49403;51.046;13.780;2023-12-28T00:30:07;8.20;86.50
63277;DHT22;49403;51.046;13.780;2023-12-28T00:30:38;8.20;86.40
63277;DHT22;49403;51.046;13.780;2023-12-28T00:31:09;8.20;86.60
63277;DHT22;49403;51.046;13.780;2023-12-28T00:31:40;8.20;86.50
63277;DHT22;49403;51.046;13.780;2023-12-28T00:32:11;8.20;86.50
63277;DHT22;49403;51.046;13.780;2023-12-28T00:32:41;8.20;86.40
63277;DHT22;49403;51.046;13.780;2023-12-28T00:33:14;8.20;86.40
63277;DHT22;49403;51.046;13.780;2023-12-28T00:33:45;8.20;86.30
63277;DHT22;49403;51.046;13.780;2023-12-28T00:34:16;8.20;86.40
63277;DHT22;49403;51.046;13.780;2023-12-28T00:34:47;8.20;86.40
63277;DHT22;49403;51.046;13.780;2023-12-28T00:35:17;8.20;86.30
63277;DHT22;49403;51.046;13.780;2023-12-28T00:35:48;8.20;86.50
63277;DHT22;49403;51.046;13.780;2023-12-28T00:36:19;8.10;86.10
63277;DHT22;49403;51.046;13.780;2023-12-28T00:36:51;8.20;86.20
63277;DHT22;49403;51.046;13.780;2023-12-28T00:37:21;8.20;86.10
63277;DHT22;49403;51.046;13.780;2023-12-28T00:37:52;7.30;85.20
63277;DHT22;49403;51.046;13.780;2023-12-28T00:38:23;8.70;86.30
63277;DHT22;49403;51.046;13.780;2023-12-28T00:38:53;8.30;86.10
63277;DHT22;49403;51.046;13.780;2023-12-28T00:39:24;8.30;85.80
63277;DHT22;49403;51.046;13.780;2023-12-28T00:39:55;8.30;85.80
63277;DHT22;49403;51.046;13.780;2023-12-28T00:40:26;8.30;85.80
63277;DHT22;49403;51.046;13.780;2023-12-28T00:40:57;8.30;85.80
63277;DHT22;49403;51.046;13.780;2023-12-28T00:41:28;8.30;85.50
63277;DHT22;49403;51.046;13.780;2023-12-28T00:41:59;8.30;85.50
63277;DHT22;49403;51.046;13.780;2023-12-28T00:42:30;8.30;85.40
63277;DHT22;49403;51.046;13.780;2023-12-28T00:43:01;8.30;85.40
63277;DHT22;49403;51.046;13.780;2023-12-28T00:43:31;8.30;85.20
63277;DHT22;49403;51.046;13.780;2023-12-28T00:44:02;8.30;85.40
63277;DHT22;49403;51.046;13.780;2023-12-28T00:44:33;8.30;85.40
63277;DHT22;49403;51.046;13.780;2023-12-28T00:45:04;8.30;85.30
63277;DHT22;49403;51.046;13.780;2023-12-28T00:45:35;8.30;84.90
63277;DHT22;49403;51.046;13.780;2023-12-28T00:46:06;8.30;84.90
63277;DHT22;49403;51.046;13.780;2023-12-28T00:46:36;8.30;85.00
63277;DHT22;49403;51.046;13.780;2023-12-28T00:47:07;8.40;85.00
63277;DHT22;49403;51.046;13.780;2023-12-28T00:47:38;8.20;84.70
63277;DHT22;49403;51.046;13.780;2023-12-28T00:48:09;8.40;84.90
63277;DHT22;49403;51.046;13.780;2023-12-28T00:48:39;8.10;84.60
63277;DHT22;49403;51.046;13.780;2023-12-28T00:49:10;8.30;84.70
63277;DHT22;49403;51.046;13.780;2023-12-28T00:49:41;8.40;84.80
63277;DHT22;49403;51.046;13.780;2023-12-28T00:50:12;8.30;84.60
63277;DHT22;49403;51.046;13.780;2023-12-28T00:50:45;8.30;84.30
63277;DHT22;49403;51.046;13.780;2023-12-28T00:51:16;9.40;85.70
63277;DHT22;49403;51.046;13.780;2023-12-28T00:51:46;8.40;84.80
63277;DHT22;49403;51.046;13.780;2023-12-28T00:52:17;8.30;84.70
63277;DHT22;49403;51.046;13.780;2023-12-28T00:52:48;8.30;85.00
63277;DHT22;49403;51.046;13.780;2023-12-28T00:53:19;8.40;85.00
63277;DHT22;49403;51.046;13.780;2023-12-28T00:53:50;8.30;84.80
63277;DHT22;49403;51.046;13.780;2023-12-28T00:54:21;8.30;85.00
63277;DHT22;49403;51.046;13.780;2023-12-28T00:54:51;8.30;84.90
63277;DHT22;49403;51.046;13.780;2023-12-28T00:55:22;8.30;84.90
63277;DHT22;49403;51.046;13.780;2023-12-28T00:55:53;8.30;84.90
63277;DHT22;49403;51.046;13.780;2023-12-28T00:56:24;8.30;84.90
63277;DHT22;49403;51.046;13.780;2023-12-28T00:56:55;8.20;84.70
63277;DHT22;49403;51.046;13.780;2023-12-28T00:57:25;8.30;84.90
63277;DHT22;49403;51.046;13.780;2023-12-28T00:57:56;8.30;84.80
63277;DHT22;49403;51.046;13.780;2023-12-28T00:58:27;7.70;84.30
63277;DHT22;49403;51.046;13.780;2023-12-28T00:58:58;8.30;85.00
63277;DHT22;49403;51.046;13.780;2023-12-28T00:59:28;8.30;85.10
63277;DHT22;49403;51.046;13.780;2023-12-28T01:00:00;8.60;85.20
63277;DHT22;49403;51.046;13.780;2023-12-28T01:00:31;8.30;84.90
63277;DHT22;49403;51.046;13.780;2023-12-28T01:01:02;8.30;84.70
63277;DHT22;49403;51.046;13.780;2023-12-28T01:01:33;8.30;84.50
63277;DHT22;49403;51.046;13.780;2023-12-28T01:02:04;8.40;84.60
63277;DHT22;49403;51.046;13.780;2023-12-28T01:02:34;8.30;84.40
63277;DHT22;49403;51.046;13.780;2023-12-28T01:03:05;8.10;84.30
63277;DHT22;49403;51.046;13.780;2023-12-28T01:03:36;8.30;84.40
63277;DHT22;49403;51.046;13.780;2023-12-28T01:04:07;8.20;84.20
63277;DHT22;49403;51.046;13.780;2023-12-28T01:04:37;8.20;84.20
63277;DHT22;49403;51.046;13.780;2023-12-28T01:05:08;8.30;84.40
63277;DHT22;49403;51.046;13.780;2023-12-28T01:05:39;8.30;84.30
63277;DHT22;49403;51.046;13.780;2023-12-28T01:06:10;8.20;84.10
63277;DHT22;49403;51.046;13.780;2023-12-28T01:06:41;8.20;84.10
63277;DHT22;49403;51.046;13.780;2023-12-28T01:07:11;8.20;83.90
63277;DHT22;49403;51.046;13.780;2023-12-28T01:07:42;8.20;83.90
63277;DHT22;49403;51.046;13.780;2023-12-28T01:08:13;8.20;83.90
63277;DHT22;49403;51.046;13.780;2023-12-28T01:08:44;8.20;83.80
63277;DHT22;49403;51.046;13.780;2023-12-28T01:09:14;8.40;83.90
63277;DHT22;49403;51.046;13.780;2023-12-28T01:09:45;8.20;83.60
63277;DHT22;49403;51.046;13.780;2023-12-28T01:10:16;8.30;83.50
63277;DHT22;49403;51.046;13.780;2023-12-28T01:10:47;8.20;83.40
63277;DHT22;49403;51.046;13.780;2023-12-28T01:11:17;8.30;83.50
63277;DHT22;49403;51.046;13.780;2023-12-28T01:11:48;8.30;83.20
63277;DHT22;49403;51.046;13.780;2023-12-28T01:12:19;8.30;82.90
63277;DHT22;49403;51.046;13.780;2023-12-28T01:12:50;8.30;83.00
63277;DHT22;49403;51.046;13.780;2023-12-28T01:13:20;8.30;83.20
63277;DHT22;49403;51.046;13.780;2023-12-28T01:13:51;8.30;83.10
63277;DHT22;49403;51.046;13.780;2023-12-28T01:14:22;8.30;83.30
63277;DHT22;49403;51.046;13.780;2023-12-28T01:14:53;8.20;83.10
63277;DHT22;49403;51.046;13.780;2023-12-28T01:15:24;8.30;83.20
63277;DHT22;49403;51.046;13.780;2023-12-28T01:15:55;8.30;83.20
63277;DHT22;49403;51.046;13.780;2023-12-28T01:16:25;8.30;83.00
63277;DHT22;49403;51.046;13.780;2023-12-28T01:16:56;7.50;82.20
63277;DHT22;49403;51.046;13.780;2023-12-28T01:17:27;8.10;82.70
63277;DHT22;49403;51.046;13.780;2023-12-28T01:17:58;8.20;83.00
63277;DHT22;49403;51.046;13.780;2023-12-28T01:18:28;8.30;82.80
63277;DHT22;49403;51.046;13.780;2023-12-28T01:18:59;8.20;82.90
63277;DHT22;49403;51.046;13.780;2023-12-28T01:19:30;8.30;82.90
63277;DHT22;49403;51.046;13.780;2023-12-28T01:20:01;8.20;82.80
63277;DHT22;49403;51.046;13.780;2023-12-28T01:20:31;8.30;82.70
63277;DHT22;49403;51.046;13.780;2023-12-28T01:21:02;8.30;82.80
63277;DHT22;49403;51.046;13.780;2023-12-28T01:21:33;8.30;82.60
63277;DHT22;49403;51.046;13.780;2023-12-28T01:22:04;8.30;82.60
63277;DHT22;49403;51.046;13.780;2023-12-28T01:22:35;8.10;82.20
63277;DHT22;49403;51.046;13.780;2023-12-28T01:23:05;8.30;82.40
63277;DHT22;49403;51.046;13.780;2023-12-28T01:23:36;8.30;82.40
63277;DHT22;49403;51.046;13.780;2023-12-28T01:24:07;8.30;82.50
63277;DHT22;49403;51.046;13.780;2023-12-28T01:24:38;8.30;82.50
63277;DHT22;49403;51.046;13.780;2023-12-28T01:25:09;8.30;82.50
63277;DHT22;49403;51.046;13.780;2023-12-28T01:25:39;8.30;82.50
63277;DHT22;49403;51.046;13.780;2023-12-28T01:26:16;8.30;82.60
63277;DHT22;49403;51.046;13.780;2023-12-28T01:26:47;8.30;82.50
63277;DHT22;49403;51.046;13.780;2023-12-28T01:27:18;8.30;82.50
63277;DHT22;49403;51.046;13.780;2023-12-28T01:27:49;8.30;82.50
63277;DHT22;49403;51.046;13.780;2023-12-28T01:28:19;8.30;82.50
63277;DHT22;49403;51.046;13.780;2023-12-28T01:28:50;8.30;82.30
63277;DHT22;49403;51.046;13.780;2023-12-28T01:29:21;8.30;82.40
63277;DHT22;49403;51.046;13.780;2023-12-28T01:29:52;8.20;82.30
63277;DHT22;49403;51.046;13.780;2023-12-28T01:30:22;8.30;82.40
63277;DHT22;49403;51.046;13.780;2023-12-28T01:30:53;8.30;82.40
63277;DHT22;49403;51.046;13.780;2023-12-28T01:31:24;8.30;82.50
63277;DHT22;49403;51.046;13.780;2023-12-28T01:31:55;8.30;82.60
63277;DHT22;49403;51.046;13.780;2023-12-28T01:32:25;8.30;82.50
63277;DHT22;49403;51.046;13.780;2023-12-28T01:32:56;8.30;83.20
63277;DHT22;49403;51.046;13.780;2023-12-28T01:33:27;8.30;82.20
63277;DHT22;49403;51.046;13.780;2023-12-28T01:33:58;8.30;82.50
63277;DHT22;49403;51.046;13.780;2023-12-28T01:34:28;8.30;82.30
63277;DHT22;49403;51.046;13.780;2023-12-28T01:34:59;8.30;82.30
63277;DHT22;49403;51.046;13.780;2023-12-28T01:35:30;8.30;82.20
63277;DHT22;49403;51.046;13.780;2023-12-28T01:36:01;8.30;82.20
63277;DHT22;49403;51.046;13.780;2023-12-28T01:36:32;8.30;81.90
63277;DHT22;49403;51.046;13.780;2023-12-28T01:37:03;8.30;82.10
63277;DHT22;49403;51.046;13.780;2023-12-28T01:37:33;8.30;82.10
63277;DHT22;49403;51.046;13.780;2023-12-28T01:38:04;8.30;82.10
63277;DHT22;49403;51.046;13.780;2023-12-28T01:38:35;8.30;82.10
63277;DHT22;49403;51.046;13.780;2023-12-28T01:39:06;8.30;82.00
63277;DHT22;49403;51.046;13.780;2023-12-28T01:39:37;8.30;82.00
63277;DHT22;49403;51.046;13.780;2023-12-28T01:40:08;7.80;81.50
63277;DHT22;49403;51.046;13.780;2023-12-28T01:40:45;8.30;81.60
63277;DHT22;49403;51.046;13.780;2023-12-28T01:41:16;8.30;81.60
63277;DHT22;49403;51.046;13.780;2023-12-28T01:41:47;8.30;81.90
63277;DHT22;49403;51.046;13.780;2023-12-28T01:42:18;8.10;81.70
63277;DHT22;49403;51.046;13.780;2023-12-28T01:42:48;8.30;81.90
63277;DHT22;49403;51.046;13.780;2023-12-28T01:43:19;8.10;81.80
63277;DHT22;49403;51.046;13.780;2023-12-28T01:43:50;8.20;82.00
63277;DHT22;49403;51.046;13.780;2023-12-28T01:44:21;8.20;82.00
63277;DHT22;49403;51.046;13.780;2023-12-28T01:44:51;6.70;80.70
63277;DHT22;49403;51.046;13.780;2023-12-28T01:45:22;8.20;82.00
63277;DHT22;49403;51.046;13.780;2023-12-28T01:45:53;8.10;82.10
63277;DHT22;49403;51.046;13.780;2023-12-28T01:46:24;8.20;82.20
63277;DHT22;49403;51.046;13.780;2023-12-28T01:46:55;8.10;82.30
63277;DHT22;49403;51.046;13.780;2023-12-28T01:47:26;8.20;82.20
63277;DHT22;49403;51.046;13.780;2023-12-28T01:47:58;8.00;81.90
63277;DHT22;49403;51.046;13.780;2023-12-28T01:48:29;8.10;81.90
63277;DHT22;49403;51.046;13.780;2023-12-28T01:49:00;8.10;82.20
63277;DHT22;49403;51.046;13.780;2023-12-28T01:49:32;8.10;82.10
63277;DHT22;49403;51.046;13.780;2023-12-28T01:50:06;8.10;81.70
63277;DHT22;49403;51.046;13.780;2023-12-28T01:50:37;8.10;81.80
63277;DHT22;49403;51.046;13.780;2023-12-28T01:51:08;8.10;82.20
63277;DHT22;49403;51.046;13.780;2023-12-28T01:51:39;8.10;82.30
63277;DHT22;49403;51.046;13.780;2023-12-28T01:52:10;8.10;82.20
63277;DHT22;49403;51.046;13.780;2023-12-28T01:52:41;8.10;82.20
63277;DHT22;49403;51.046;13.780;2023-12-28T01:53:12;8.10;82.20
63277;DHT22;49403;51.046;13.780;2023-12-28T01:53:44;8.00;82.10
63277;DHT22;49403;51.046;13.780;2023-12-28T01:54:16;7.90;81.80
63277;DHT22;49403;51.046;13.780;2023-12-28T01:54:47;8.10;82.20
63277;DHT22;49403;51.046;13.780;2023-12-28T01:55:19;8.10;82.00
63277;DHT22;49403;51.046;13.780;2023-12-28T01:55:52;8.10;81.80
63277;DHT22;49403;51.046;13.780;2023-12-28T01:56:23;8.10;81.90
63277;DHT22;49403;51.046;13.780;2023-12-28T01:56:54;8.10;81.50
63277;DHT22;49403;51.046;13.780;2023-12-28T01:57:25;8.00;81.70
63277;DHT22;49403;51.046;13.780;2023-12-28T01:57:57;8.00;81.70
63277;DHT22;49403;51.046;13.780;2023-12-28T01:58:28;8.00;81.50
63277;DHT22;49403;51.046;13.780;2023-12-28T01:59:03;8.00;81.40
63277;DHT22;49403;51.046;13.780;2023-12-28T01:59:34;8.00;81.80
63277;DHT22;49403;51.046;13.780;2023-12-28T02:00:05;8.00;81.70
63277;DHT22;49403;51.046;13.780;2023-12-28T02:00:36;8.70;82.10
63277;DHT22;49403;51.046;13.780;2023-12-28T02:01:10;8.00;81.70
63277;DHT22;49403;51.046;13.780;2023-12-28T02:01:41;6.50;80.00
63277;DHT22;49403;51.046;13.780;2023-12-28T02:02:12;7.90;81.50
63277;DHT22;49403;51.046;13.780;2023-12-28T02:02:45;8.00;81.10
63277;DHT22;49403;51.046;13.780;2023-12-28T02:03:16;8.10;81.30
63277;DHT22;49403;51.046;13.780;2023-12-28T02:03:46;7.90;81.00
63277;DHT22;49403;51.046;13.780;2023-12-28T02:04:18;8.10;80.80
63277;DHT22;49403;51.046;13.780;2023-12-28T02:04:53;8.10;81.00
63277;DHT22;49403;51.046;13.780;2023-12-28T02:05:24;8.10;80.60
63277;DHT22;49403;51.046;13.780;2023-12-28T02:05:55;7.90;80.70
63277;DHT22;49403;51.046;13.780;2023-12-28T02:06:26;8.10;81.10
63277;DHT22;49403;51.046;13.780;2023-12-28T02:06:59;8.00;80.80
63277;DHT22;49403;51.046;13.780;2023-12-28T02:07:30;7.90;80.30
63277;DHT22;49403;51.046;13.780;2023-12-28T02:08:02;8.10;80.30
63277;DHT22;49403;51.046;13.780;2023-12-28T02:08:34;8.00;79.80
63277;DHT22;49403;51.046;13.780;2023-12-28T02:09:04;8.10;80.00
63277;DHT22;49403;51.046;13.780;2023-12-28T02:09:35;8.00;79.70
63277;DHT22;49403;51.046;13.780;2023-12-28T02:10:07;8.00;79.60
63277;DHT22;49403;51.046;13.780;2023-12-28T02:10:39;8.00;79.30
63277;DHT22;49403;51.046;13.780;2023-12-28T02:11:09;8.00;79.60
63277;DHT22;49403;51.046;13.780;2023-12-28T02:11:40;8.00;79.20
63277;DHT22;49403;51.046;13.780;2023-12-28T02:12:11;8.00;79.40
63277;DHT22;49403;51.046;13.780;2023-12-28T02:12:43;8.00;79.30
63277;DHT22;49403;51.046;13.780;2023-12-28T02:13:14;8.00;79.20
63277;DHT22;49403;51.046;13.780;2023-12-28T02:13:45;8.00;79.40
63277;DHT22;49403;51.046;13.780;2023-12-28T02:14:16;8.00;79.00
63277;DHT22;49403;51.046;13.780;2023-12-28T02:14:47;8.00;79.20
63277;DHT22;49403;51.046;13.780;2023-12-28T02:15:19;8.00;79.00
63277;DHT22;49403;51.046;13.780;2023-12-28T02:16:00;8.00;79.00
63277;DHT22;49403;51.046;13.780;2023-12-28T02:16:35;8.10;78.80
63277;DHT22;49403;51.046;13.780;2023-12-28T02:17:12;8.10;79.00
63277;DHT22;49403;51.046;13.780;2023-12-28T02:18:05;8.10;78.90
63277;DHT22;49403;51.046;13.780;2023-12-28T02:18:43;8.10;78.90
63277;DHT22;49403;51.046;13.780;2023-12-28T02:19:39;7.90;78.80
63277;DHT22;49403;51.046;13.780;2023-12-28T02:20:11;8.10;78.60
63277;DHT22;49403;51.046;13.780;2023-12-28T02:20:43;8.00;78.80
63277;DHT22;49403;51.046;13.780;2023-12-28T02:21:15;8.00;78.90
63277;DHT22;49403;51.046;13.780;2023-12-28T02:21:47;8.10;79.30
63277;DHT22;49403;51.046;13.780;2023-12-28T02:22:18;8.00;79.40
63277;DHT22;49403;51.046;13.780;2023-12-28T02:22:50;8.10;79.30
63277;DHT22;49403;51.046;13.780;2023-12-28T02:23:21;8.10;79.10
63277;DHT22;49403;51.046;13.780;2023-12-28T02:23:51;8.00;79.30
63277;DHT22;49403;51.046;13.780;2023-12-28T02:24:22;8.10;80.20
63277;DHT22;49403;51.046;13.780;2023-12-28T02:25:38;8.00;78.90
63277;DHT22;49403;51.046;13.780;2023-12-28T02:26:09;8.00;79.40
63277;DHT22;49403;51.046;13.780;2023-12-28T02:26:40;8.00;79.00
63277;DHT22;49403;51.046;13.780;2023-12-28T02:27:11;8.00;79.00
63277;DHT22;49403;51.046;13.780;2023-12-28T02:27:45;8.00;78.90
63277;DHT22;49403;51.046;13.780;2023-12-28T02:28:17;8.10;78.60
63277;DHT22;49403;51.046;13.780;2023-12-28T02:28:48;8.10;79.00
63277;DHT22;49403;51.046;13.780;2023-12-28T02:29:19;8.10;78.30
63277;DHT22;49403;51.046;13.780;2023-12-28T02:29:50;8.10;78.60
63277;DHT22;49403;51.046;13.780;2023-12-28T02:30:22;8.10;78.40
63277;DHT22;49403;51.046;13.780;2023-12-28T02:30:53;8.10;78.20
63277;DHT22;49403;51.046;13.780;2023-12-28T02:31:30;8.10;78.40
63277;DHT22;49403;51.046;13.780;2023-12-28T02:32:06;8.10;78.10
63277;DHT22;49403;51.046;13.780;2023-12-28T02:33:01;8.10;78.20
63277;DHT22;49403;51.046;13.780;2023-12-28T02:33:38;8.10;78.10
63277;DHT22;49403;51.046;13.780;2023-12-28T02:34:18;8.10;77.70
63277;DHT22;49403;51.046;13.780;2023-12-28T02:34:52;7.60;77.20
63277;DHT22;49403;51.046;13.780;2023-12-28T02:35:33;8.10;77.80
63277;DHT22;49403;51.046;13.780;2023-12-28T02:36:07;8.10;77.70
63277;DHT22;49403;51.046;13.780;2023-12-28T02:36:41;8.10;77.50
63277;DHT22;49403;51.046;13.780;2023-12-28T02:37:16;8.10;77.70
63277;DHT22;49403;51.046;13.780;2023-12-28T02:37:51;8.10;77.80
63277;DHT22;49403;51.046;13.780;2023-12-28T02:38:24;8.10;77.90
63277;DHT22;49403;51.046;13.780;2023-12-28T02:38:56;8.10;77.80
63277;DHT22;49403;51.046;13.780;2023-12-28T02:39:29;8.10;77.80
63277;DHT22;49403;51.046;13.780;2023-12-28T02:40:02;8.10;78.10
63277;DHT22;49403;51.046;13.780;2023-12-28T02:40:36;8.10;78.40
63277;DHT22;49403;51.046;13.780;2023-12-28T02:41:11;8.10;77.90
63277;DHT22;49403;51.046;13.780;2023-12-28T02:41:45;8.10;78.20
63277;DHT22;49403;51.046;13.780;2023-12-28T02:42:16;8.20;77.80
63277;DHT22;49403;51.046;13.780;2023-12-28T02:42:48;8.10;77.70
63277;DHT22;49403;51.046;13.780;2023-12-28T02:43:18;8.20;78.20
63277;DHT22;49403;51.046;13.780;2023-12-28T02:43:51;8.20;77.80
63277;DHT22;49403;51.046;13.780;2023-12-28T02:44:21;8.20;77.80
63277;DHT22;49403;51.046;13.780;2023-12-28T02:44:52;8.20;77.30
63277;DHT22;49403;51.046;13.780;2023-12-28T02:45:23;8.20;77.40
63277;DHT22;49403;51.046;13.780;2023-12-28T02:45:54;6.70;76.00
63277;DHT22;49403;51.046;13.780;2023-12-28T02:46:25;8.20;77.50
63277;DHT22;49403;51.046;13.780;2023-12-28T02:46:55;8.20;77.60
63277;DHT22;49403;51.046;13.780;2023-12-28T02:47:26;8.20;77.50
63277;DHT22;49403;51.046;13.780;2023-12-28T02:47:57;8.20;77.40
63277;DHT22;49403;51.046;13.780;2023-12-28T02:48:28;7.00;76.30
63277;DHT22;49403;51.046;13.780;2023-12-28T02:48:58;8.20;77.10
63277;DHT22;49403;51.046;13.780;2023-12-28T02:49:29;8.20;77.10
63277;DHT22;49403;51.046;13.780;2023-12-28T02:50:00;8.20;77.00
63277;DHT22;49403;51.046;13.780;2023-12-28T02:50:34;8.20;76.40
63277;DHT22;49403;51.046;13.780;2023-12-28T02:51:06;8.20;75.90
63277;DHT22;49403;51.046;13.780;2023-12-28T02:51:36;8.20;76.30
63277;DHT22;49403;51.046;13.780;2023-12-28T02:52:07;8.20;76.20
63277;DHT22;49403;51.046;13.780;2023-12-28T02:52:38;8.20;76.20
63277;DHT22;49403;51.046;13.780;2023-12-28T02:53:09;8.20;76.40
63277;DHT22;49403;51.046;13.780;2023-12-28T02:53:40;8.30;76.80
63277;DHT22;49403;51.046;13.780;2023-12-28T02:54:10;8.30;76.70
63277;DHT22;49403;51.046;13.780;2023-12-28T02:54:41;8.30;77.00
63277;DHT22;49403;51.046;13.780;2023-12-28T02:55:12;8.30;76.10
63277;DHT22;49403;51.046;13.780;2023-12-28T02:55:43;8.30;76.10
63277;DHT22;49403;51.046;13.780;2023-12-28T02:56:14;8.30;76.00
63277;DHT22;49403;51.046;13.780;2023-12-28T02:56:45;8.30;76.10
63277;DHT22;49403;51.046;13.780;2023-12-28T02:57:15;8.30;76.40
63277;DHT22;49403;51.046;13.780;2023-12-28T02:57:50;8.30;76.30
63277;DHT22;49403;51.046;13.780;2023-12-28T02:58:21;8.30;75.80
63277;DHT22;49403;51.046;13.780;2023-12-28T02:58:52;8.30;76.10
63277;DHT22;49403;51.046;13.780;2023-12-28T02:59:22;8.30;77.00
63277;DHT22;49403;51.046;13.780;2023-12-28T02:59:53;8.30;76.30
63277;DHT22;49403;51.046;13.780;2023-12-28T03:00:24;8.30;76.50
63277;DHT22;49403;51.046;13.780;2023-12-28T03:00:55;8.30;76.60
63277;DHT22;49403;51.046;13.780;2023-12-28T03:01:26;8.30;76.90
63277;DHT22;49403;51.046;13.780;2023-12-28T03:01:57;8.30;76.50
63277;DHT22;49403;51.046;13.780;2023-12-28T03:02:28;8.30;76.30
63277;DHT22;49403;51.046;13.780;2023-12-28T03:02:59;8.30;76.40
63277;DHT22;49403;51.046;13.780;2023-12-28T03:03:30;7.60;75.60
63277;DHT22;49403;51.046;13.780;2023-12-28T03:04:01;8.30;76.10
63277;DHT22;49403;51.046;13.780;2023-12-28T03:04:32;8.30;76.10
63277;DHT22;49403;51.046;13.780;2023-12-28T03:05:03;8.30;76.30
63277;DHT22;49403;51.046;13.780;2023-12-28T03:05:35;8.30;76.00
63277;DHT22;49403;51.046;13.780;2023-12-28T03:06:06;8.30;76.40
63277;DHT22;49403;51.046;13.780;2023-12-28T03:06:36;8.30;76.30
63277;DHT22;49403;51.046;13.780;2023-12-28T03:07:09;8.30;76.30
63277;DHT22;49403;51.046;13.780;2023-12-28T03:07:39;8.30;76.20
63277;DHT22;49403;51.046;13.780;2023-12-28T03:08:10;8.30;76.00
63277;DHT22;49403;51.046;13.780;2023-12-28T03:08:41;8.30;75.80
63277;DHT22;49403;51.046;13.780;2023-12-28T03:09:12;9.60;76.90
63277;DHT22;49403;51.046;13.780;2023-12-28T03:09:43;8.30;75.60
63277;DHT22;49403;51.046;13.780;2023-12-28T03:10:14;8.20;75.40
63277;DHT22;49403;51.046;13.780;2023-12-28T03:10:45;8.30;75.60
63277;DHT22;49403;51.046;13.780;2023-12-28T03:11:16;8.30;75.40
63277;DHT22;49403;51.046;13.780;2023-12-28T03:11:47;8.30;75.40
63277;DHT22;49403;51.046;13.780;2023-12-28T03:12:17;8.30;75.50
63277;DHT22;49403;51.046;13.780;2023-12-28T03:12:48;8.30;75.60
63277;DHT22;49403;51.046;13.780;2023-12-28T03:13:19;7.90;75.00
63277;DHT22;49403;51.046;13.780;2023-12-28T03:13:50;8.30;75.50
63277;DHT22;49403;51.046;13.780;2023-12-28T03:14:21;8.30;75.20
63277;DHT22;49403;51.046;13.780;2023-12-28T03:14:51;8.30;75.10
63277;DHT22;49403;51.046;13.780;2023-12-28T03:15:22;8.30;75.20
63277;DHT22;49403;51.046;13.780;2023-12-28T03:15:53;8.30;75.50
63277;DHT22;49403;51.046;13.780;2023-12-28T03:16:24;8.30;75.50
63277;DHT22;49403;51.046;13.780;2023-12-28T03:16:55;8.30;75.70
63277;DHT22;49403;51.046;13.780;2023-12-28T03:17:26;8.30;75.80
63277;DHT22;49403;51.046;13.780;2023-12-28T03:17:56;8.30;75.60
63277;DHT22;49403;51.046;13.780;2023-12-28T03:18:27;8.30;75.60
63277;DHT22;49403;51.046;13.780;2023-12-28T03:18:58;8.30;75.50
63277;DHT22;49403;51.046;13.780;2023-12-28T03:19:29;8.20;75.00